sensor_id;sensor_type;location;lat;lon;timestamp;pressure;altitude;pressure_sealevel;temperature
40968;BMP280;57377;45.130;6.038;2023-03-01T00:01:22;92611.44;;;3.52
40968;BMP280;57377;45.130;6.038;2023-03-01T00:03:48;92608.91;;;3.57
40968;BMP280;57377;45.130;6.038;2023-03-01T00:06:14;92598.59;;;4.09
40968;BMP280;57377;45.130;6.038;2023-03-01T00:08:39;92589.06;;;4.46
40968;BMP280;57377;45.130;6.038;2023-03-01T00:11:23;92583.72;;;4.16
40968;BMP280;57377;45.130;6.038;2023-03-01T00:13:51;92589.16;;;4.24
40968;BMP280;57377;45.130;6.038;2023-03-01T00:16:20;92590.41;;;3.86
40968;BMP280;57377;45.130;6.038;2023-03-01T00:18:46;92592.69;;;3.83
40968;BMP280;57377;45.130;6.038;2023-03-01T00:21:12;92592.19;;;4.12
40968;BMP280;57377;45.130;6.038;2023-03-01T00:23:38;92588.56;;;3.82
40968;BMP280;57377;45.130;6.038;2023-03-01T00:26:09;92588.38;;;3.88
40968;BMP280;57377;45.130;6.038;2023-03-01T00:28:35;92591.19;;;3.34
40968;BMP280;57377;45.130;6.038;2023-03-01T00:31:22;92587.75;;;3.76
40968;BMP280;57377;45.130;6.038;2023-03-01T00:33:48;92586.84;;;4.23
40968;BMP280;57377;45.130;6.038;2023-03-01T00:36:14;92581.75;;;4.28
40968;BMP280;57377;45.130;6.038;2023-03-01T00:38:42;92595.19;;;3.47
40968;BMP280;57377;45.130;6.038;2023-03-01T00:41:11;92589.16;;;3.62
40968;BMP280;57377;45.130;6.038;2023-03-01T00:43:37;92593.00;;;3.91
40968;BMP280;57377;45.130;6.038;2023-03-01T00:46:09;92591.53;;;4.31
40968;BMP280;57377;45.130;6.038;2023-03-01T00:48:35;92589.09;;;4.50
40968;BMP280;57377;45.130;6.038;2023-03-01T00:53:33;92595.38;;;4.28
40968;BMP280;57377;45.130;6.038;2023-03-01T00:55:59;92603.88;;;3.98
40968;BMP280;57377;45.130;6.038;2023-03-01T00:58:24;92600.56;;;4.33
40968;BMP280;57377;45.130;6.038;2023-03-01T01:00:49;92595.56;;;4.53
40968;BMP280;57377;45.130;6.038;2023-03-01T01:03:15;92588.19;;;4.30
40968;BMP280;57377;45.130;6.038;2023-03-01T01:05:40;92581.50;;;4.34
40968;BMP280;57377;45.130;6.038;2023-03-01T01:08:06;92576.53;;;4.59
40968;BMP280;57377;45.130;6.038;2023-03-01T01:10:34;92569.09;;;4.67
40968;BMP280;57377;45.130;6.038;2023-03-01T01:12:59;92576.53;;;4.59
40968;BMP280;57377;45.130;6.038;2023-03-01T01:15:25;92573.91;;;4.49
40968;BMP280;57377;45.130;6.038;2023-03-01T01:17:50;92570.78;;;4.42
40968;BMP280;57377;45.130;6.038;2023-03-01T01:20:16;92573.78;;;4.34
40968;BMP280;57377;45.130;6.038;2023-03-01T01:22:41;92579.63;;;4.61
40968;BMP280;57377;45.130;6.038;2023-03-01T01:31:59;92566.97;;;4.54
40968;BMP280;57377;45.130;6.038;2023-03-01T01:34:25;92569.06;;;4.57
40968;BMP280;57377;45.130;6.038;2023-03-01T01:36:52;92573.00;;;3.98
40968;BMP280;57377;45.130;6.038;2023-03-01T01:39:21;92555.00;;;3.67
40968;BMP280;57377;45.130;6.038;2023-03-01T01:41:47;92559.84;;;3.63
40968;BMP280;57377;45.130;6.038;2023-03-01T01:52:18;92541.34;;;4.33
40968;BMP280;57377;45.130;6.038;2023-03-01T01:57:49;92536.63;;;4.20
40968;BMP280;57377;45.130;6.038;2023-03-01T02:00:21;92538.06;;;4.02
40968;BMP280;57377;45.130;6.038;2023-03-01T02:02:49;92533.19;;;3.74
40968;BMP280;57377;45.130;6.038;2023-03-01T02:07:45;92535.00;;;3.74
40968;BMP280;57377;45.130;6.038;2023-03-01T02:10:10;92533.34;;;3.89
40968;BMP280;57377;45.130;6.038;2023-03-01T02:12:37;92525.72;;;4.04
40968;BMP280;57377;45.130;6.038;2023-03-01T02:15:03;92526.66;;;3.62
40968;BMP280;57377;45.130;6.038;2023-03-01T02:17:29;92531.38;;;3.70
40968;BMP280;57377;45.130;6.038;2023-03-01T02:22:43;92514.75;;;3.51
40968;BMP280;57377;45.130;6.038;2023-03-01T02:25:39;92516.00;;;3.49
40968;BMP280;57377;45.130;6.038;2023-03-01T02:30:45;92508.16;;;3.34
40968;BMP280;57377;45.130;6.038;2023-03-01T02:33:31;92501.44;;;3.07
40968;BMP280;57377;45.130;6.038;2023-03-01T02:35:59;92499.19;;;3.10
40968;BMP280;57377;45.130;6.038;2023-03-01T02:38:26;92489.88;;;3.61
40968;BMP280;57377;45.130;6.038;2023-03-01T02:40:52;92489.06;;;3.87
40968;BMP280;57377;45.130;6.038;2023-03-01T02:43:19;92495.19;;;3.50
40968;BMP280;57377;45.130;6.038;2023-03-01T02:45:50;92490.28;;;3.49
40968;BMP280;57377;45.130;6.038;2023-03-01T02:48:17;92487.78;;;3.89
40968;BMP280;57377;45.130;6.038;2023-03-01T02:51:33;92482.06;;;4.18
40968;BMP280;57377;45.130;6.038;2023-03-01T02:56:02;92474.22;;;3.32
40968;BMP280;57377;45.130;6.038;2023-03-01T02:58:27;92482.50;;;3.13
40968;BMP280;57377;45.130;6.038;2023-03-01T03:00:53;92477.91;;;2.67
40968;BMP280;57377;45.130;6.038;2023-03-01T03:03:20;92481.84;;;2.75
40968;BMP280;57377;45.130;6.038;2023-03-01T03:05:46;92472.94;;;2.82
40968;BMP280;57377;45.130;6.038;2023-03-01T03:08:12;92459.91;;;2.88
40968;BMP280;57377;45.130;6.038;2023-03-01T03:10:41;92449.09;;;3.13
40968;BMP280;57377;45.130;6.038;2023-03-01T03:13:13;92454.09;;;2.72
40968;BMP280;57377;45.130;6.038;2023-03-01T03:15:39;92459.53;;;2.54
40968;BMP280;57377;45.130;6.038;2023-03-01T03:18:09;92447.25;;;2.82
40968;BMP280;57377;45.130;6.038;2023-03-01T03:20:36;92451.38;;;3.09
40968;BMP280;57377;45.130;6.038;2023-03-01T03:23:02;92429.50;;;3.07
40968;BMP280;57377;45.130;6.038;2023-03-01T03:25:28;92436.22;;;3.08
40968;BMP280;57377;45.130;6.038;2023-03-01T03:27:54;92432.91;;;3.12
40968;BMP280;57377;45.130;6.038;2023-03-01T03:30:23;92429.03;;;2.84
40968;BMP280;57377;45.130;6.038;2023-03-01T03:32:48;92433.00;;;2.96
40968;BMP280;57377;45.130;6.038;2023-03-01T03:35:22;92429.66;;;3.26
40968;BMP280;57377;45.130;6.038;2023-03-01T03:37:48;92425.41;;;3.37
40968;BMP280;57377;45.130;6.038;2023-03-01T03:41:04;92424.25;;;3.23
40968;BMP280;57377;45.130;6.038;2023-03-01T03:43:32;92425.53;;;2.94
40968;BMP280;57377;45.130;6.038;2023-03-01T03:45:58;92425.00;;;2.92
40968;BMP280;57377;45.130;6.038;2023-03-01T03:48:24;92413.97;;;3.23
40968;BMP280;57377;45.130;6.038;2023-03-01T03:50:52;92414.91;;;3.43
40968;BMP280;57377;45.130;6.038;2023-03-01T03:53:19;92410.38;;;3.24
40968;BMP280;57377;45.130;6.038;2023-03-01T03:55:45;92412.25;;;3.02
40968;BMP280;57377;45.130;6.038;2023-03-01T03:58:15;92414.50;;;2.68
40968;BMP280;57377;45.130;6.038;2023-03-01T04:00:43;92415.94;;;2.59
40968;BMP280;57377;45.130;6.038;2023-03-01T04:03:08;92418.56;;;2.90
40968;BMP280;57377;45.130;6.038;2023-03-01T04:05:35;92408.28;;;2.90
40968;BMP280;57377;45.130;6.038;2023-03-01T04:08:01;92408.59;;;2.93
40968;BMP280;57377;45.130;6.038;2023-03-01T04:10:32;92414.25;;;2.95
40968;BMP280;57377;45.130;6.038;2023-03-01T04:12:58;92407.28;;;2.91
40968;BMP280;57377;45.130;6.038;2023-03-01T04:15:25;92402.19;;;2.96
40968;BMP280;57377;45.130;6.038;2023-03-01T04:17:51;92404.41;;;3.50
40968;BMP280;57377;45.130;6.038;2023-03-01T04:20:20;92401.72;;;3.71
40968;BMP280;57377;45.130;6.038;2023-03-01T04:25:23;92398.25;;;3.91
40968;BMP280;57377;45.130;6.038;2023-03-01T04:27:48;92402.47;;;3.30
40968;BMP280;57377;45.130;6.038;2023-03-01T04:30:14;92409.03;;;2.90
40968;BMP280;57377;45.130;6.038;2023-03-01T04:32:39;92393.59;;;3.17
40968;BMP280;57377;45.130;6.038;2023-03-01T04:35:05;92390.31;;;3.21
40968;BMP280;57377;45.130;6.038;2023-03-01T04:37:30;92395.66;;;2.84
40968;BMP280;57377;45.130;6.038;2023-03-01T04:39:56;92399.47;;;2.81
40968;BMP280;57377;45.130;6.038;2023-03-01T04:42:21;92399.44;;;2.76
40968;BMP280;57377;45.130;6.038;2023-03-01T04:44:46;92387.34;;;3.03
40968;BMP280;57377;45.130;6.038;2023-03-01T04:47:12;92397.38;;;2.78
40968;BMP280;57377;45.130;6.038;2023-03-01T04:49:38;92395.66;;;2.57
40968;BMP280;57377;45.130;6.038;2023-03-01T04:52:04;92402.09;;;2.60
40968;BMP280;57377;45.130;6.038;2023-03-01T04:54:31;92391.34;;;2.63
40968;BMP280;57377;45.130;6.038;2023-03-01T04:56:57;92396.56;;;2.73
40968;BMP280;57377;45.130;6.038;2023-03-01T04:59:22;92393.72;;;2.69
40968;BMP280;57377;45.130;6.038;2023-03-01T05:01:49;92404.03;;;2.48
40968;BMP280;57377;45.130;6.038;2023-03-01T05:04:15;92402.88;;;2.39
40968;BMP280;57377;45.130;6.038;2023-03-01T05:06:40;92413.19;;;2.44
40968;BMP280;57377;45.130;6.038;2023-03-01T05:09:05;92404.69;;;2.39
40968;BMP280;57377;45.130;6.038;2023-03-01T05:11:31;92397.97;;;2.59
40968;BMP280;57377;45.130;6.038;2023-03-01T05:14:01;92395.28;;;3.01
40968;BMP280;57377;45.130;6.038;2023-03-01T05:16:27;92398.09;;;3.31
40968;BMP280;57377;45.130;6.038;2023-03-01T05:18:52;92397.66;;;3.08
40968;BMP280;57377;45.130;6.038;2023-03-01T05:21:21;92398.78;;;2.38
40968;BMP280;57377;45.130;6.038;2023-03-01T05:23:46;92402.84;;;2.34
40968;BMP280;57377;45.130;6.038;2023-03-01T05:26:12;92401.19;;;2.50
40968;BMP280;57377;45.130;6.038;2023-03-01T05:28:38;92403.06;;;2.80
40968;BMP280;57377;45.130;6.038;2023-03-01T05:31:05;92394.63;;;2.85
40968;BMP280;57377;45.130;6.038;2023-03-01T05:33:38;92398.78;;;2.90
40968;BMP280;57377;45.130;6.038;2023-03-01T05:36:05;92381.06;;;3.20
40968;BMP280;57377;45.130;6.038;2023-03-01T05:38:31;92377.88;;;3.08
40968;BMP280;57377;45.130;6.038;2023-03-01T05:40:56;92379.25;;;2.89
40968;BMP280;57377;45.130;6.038;2023-03-01T05:43:22;92382.72;;;2.48
40968;BMP280;57377;45.130;6.038;2023-03-01T05:45:48;92384.44;;;2.68
40968;BMP280;57377;45.130;6.038;2023-03-01T05:48:13;92385.75;;;2.71
40968;BMP280;57377;45.130;6.038;2023-03-01T05:50:43;92383.13;;;2.66
40968;BMP280;57377;45.130;6.038;2023-03-01T05:53:15;92379.31;;;2.68
40968;BMP280;57377;45.130;6.038;2023-03-01T05:55:41;92376.00;;;2.99
40968;BMP280;57377;45.130;6.038;2023-03-01T05:58:11;92377.00;;;3.29
40968;BMP280;57377;45.130;6.038;2023-03-01T06:00:39;92381.78;;;3.47
40968;BMP280;57377;45.130;6.038;2023-03-01T06:03:05;92382.63;;;3.26
40968;BMP280;57377;45.130;6.038;2023-03-01T06:05:30;92383.25;;;3.38
40968;BMP280;57377;45.130;6.038;2023-03-01T06:07:59;92389.75;;;3.50
40968;BMP280;57377;45.130;6.038;2023-03-01T06:10:24;92385.59;;;3.44
40968;BMP280;57377;45.130;6.038;2023-03-01T06:12:50;92378.34;;;3.72
40968;BMP280;57377;45.130;6.038;2023-03-01T06:15:16;92390.28;;;3.93
40968;BMP280;57377;45.130;6.038;2023-03-01T06:17:44;92386.94;;;3.92
40968;BMP280;57377;45.130;6.038;2023-03-01T06:20:21;92389.34;;;3.63
40968;BMP280;57377;45.130;6.038;2023-03-01T06:22:47;92385.75;;;3.28
40968;BMP280;57377;45.130;6.038;2023-03-01T06:25:15;92394.69;;;3.20
40968;BMP280;57377;45.130;6.038;2023-03-01T06:27:42;92387.78;;;3.26
40968;BMP280;57377;45.130;6.038;2023-03-01T06:30:09;92401.59;;;2.89
40968;BMP280;57377;45.130;6.038;2023-03-01T06:32:36;92399.94;;;2.78
40968;BMP280;57377;45.130;6.038;2023-03-01T06:35:03;92396.56;;;2.73
40968;BMP280;57377;45.130;6.038;2023-03-01T06:37:28;92392.63;;;2.91
40968;BMP280;57377;45.130;6.038;2023-03-01T06:39:53;92389.00;;;3.18
40968;BMP280;57377;45.130;6.038;2023-03-01T06:42:19;92397.25;;;3.20
40968;BMP280;57377;45.130;6.038;2023-03-01T06:44:44;92396.81;;;3.69
40968;BMP280;57377;45.130;6.038;2023-03-01T06:47:10;92398.91;;;3.72
40968;BMP280;57377;45.130;6.038;2023-03-01T06:49:36;92391.28;;;3.87
40968;BMP280;57377;45.130;6.038;2023-03-01T06:52:01;92393.97;;;4.12
40968;BMP280;57377;45.130;6.038;2023-03-01T06:54:28;92394.53;;;4.18
40968;BMP280;57377;45.130;6.038;2023-03-01T06:56:53;92392.19;;;4.17
40968;BMP280;57377;45.130;6.038;2023-03-01T06:59:19;92397.91;;;4.29
40968;BMP280;57377;45.130;6.038;2023-03-01T07:01:44;92400.22;;;4.25
40968;BMP280;57377;45.130;6.038;2023-03-01T07:04:11;92395.09;;;4.30
40968;BMP280;57377;45.130;6.038;2023-03-01T07:06:36;92381.19;;;4.31
40968;BMP280;57377;45.130;6.038;2023-03-01T07:09:02;92388.16;;;4.36
40968;BMP280;57377;45.130;6.038;2023-03-01T07:11:27;92387.63;;;4.34
40968;BMP280;57377;45.130;6.038;2023-03-01T07:13:53;92403.31;;;4.27
40968;BMP280;57377;45.130;6.038;2023-03-01T07:16:18;92397.28;;;4.02
40968;BMP280;57377;45.130;6.038;2023-03-01T07:18:45;92392.44;;;4.11
40968;BMP280;57377;45.130;6.038;2023-03-01T07:21:12;92396.78;;;3.64
40968;BMP280;57377;45.130;6.038;2023-03-01T07:23:38;92385.88;;;3.48
40968;BMP280;57377;45.130;6.038;2023-03-01T07:26:04;92396.78;;;3.64
40968;BMP280;57377;45.130;6.038;2023-03-01T07:28:29;92390.38;;;3.67
40968;BMP280;57377;45.130;6.038;2023-03-01T07:31:00;92391.72;;;3.79
40968;BMP280;57377;45.130;6.038;2023-03-01T07:33:26;92395.72;;;4.01
40968;BMP280;57377;45.130;6.038;2023-03-01T07:35:56;92396.56;;;4.16
40968;BMP280;57377;45.130;6.038;2023-03-01T07:38:21;92399.94;;;4.22
40968;BMP280;57377;45.130;6.038;2023-03-01T07:40:47;92397.13;;;4.23
40968;BMP280;57377;45.130;6.038;2023-03-01T07:43:12;92386.28;;;3.71
40968;BMP280;57377;45.130;6.038;2023-03-01T07:45:37;92387.13;;;3.81
40968;BMP280;57377;45.130;6.038;2023-03-01T07:48:03;92390.22;;;3.83
40968;BMP280;57377;45.130;6.038;2023-03-01T07:50:28;92389.34;;;4.09
40968;BMP280;57377;45.130;6.038;2023-03-01T07:52:54;92390.81;;;4.00
40968;BMP280;57377;45.130;6.038;2023-03-01T07:55:19;92395.03;;;3.70
40968;BMP280;57377;45.130;6.038;2023-03-01T07:57:45;92391.69;;;3.74
40968;BMP280;57377;45.130;6.038;2023-03-01T08:00:11;92401.00;;;3.80
40968;BMP280;57377;45.130;6.038;2023-03-01T08:02:37;92403.16;;;3.98
40968;BMP280;57377;45.130;6.038;2023-03-01T08:05:03;92395.75;;;4.06
40968;BMP280;57377;45.130;6.038;2023-03-01T08:07:29;92402.78;;;4.20
40968;BMP280;57377;45.130;6.038;2023-03-01T08:09:54;92398.97;;;4.38
40968;BMP280;57377;45.130;6.038;2023-03-01T08:12:19;92386.38;;;4.46
40968;BMP280;57377;45.130;6.038;2023-03-01T08:14:45;92397.91;;;4.29
40968;BMP280;57377;45.130;6.038;2023-03-01T08:17:12;92397.13;;;4.23
40968;BMP280;57377;45.130;6.038;2023-03-01T08:19:38;92399.06;;;4.02
40968;BMP280;57377;45.130;6.038;2023-03-01T08:22:03;92396.34;;;4.23
40968;BMP280;57377;45.130;6.038;2023-03-01T08:24:29;92407.44;;;4.28
40968;BMP280;57377;45.130;6.038;2023-03-01T08:26:54;92399.69;;;4.18
40968;BMP280;57377;45.130;6.038;2023-03-01T08:29:20;92394.94;;;4.01
40968;BMP280;57377;45.130;6.038;2023-03-01T08:31:47;92405.34;;;4.15
40968;BMP280;57377;45.130;6.038;2023-03-01T08:34:14;92410.81;;;4.39
40968;BMP280;57377;45.130;6.038;2023-03-01T08:36:42;92401.00;;;4.31
40968;BMP280;57377;45.130;6.038;2023-03-01T08:39:10;92396.66;;;4.41
40968;BMP280;57377;45.130;6.038;2023-03-01T08:41:36;92407.69;;;4.27
40968;BMP280;57377;45.130;6.038;2023-03-01T08:44:02;92406.88;;;4.16
40968;BMP280;57377;45.130;6.038;2023-03-01T08:46:33;92395.66;;;4.42
40968;BMP280;57377;45.130;6.038;2023-03-01T08:48:59;92397.16;;;4.33
40968;BMP280;57377;45.130;6.038;2023-03-01T08:51:25;92398.78;;;4.54
40968;BMP280;57377;45.130;6.038;2023-03-01T08:53:51;92400.09;;;4.61
40968;BMP280;57377;45.130;6.038;2023-03-01T08:56:18;92396.66;;;4.41
40968;BMP280;57377;45.130;6.038;2023-03-01T08:58:47;92396.84;;;4.20
40968;BMP280;57377;45.130;6.038;2023-03-01T09:01:16;92392.22;;;4.27
40968;BMP280;57377;45.130;6.038;2023-03-01T09:03:42;92401.75;;;4.26
40968;BMP280;57377;45.130;6.038;2023-03-01T09:06:08;92390.69;;;4.26
40968;BMP280;57377;45.130;6.038;2023-03-01T09:08:35;92387.63;;;4.34
40968;BMP280;57377;45.130;6.038;2023-03-01T09:11:06;92381.72;;;4.33
40968;BMP280;57377;45.130;6.038;2023-03-01T09:13:33;92388.81;;;4.12
40968;BMP280;57377;45.130;6.038;2023-03-01T09:16:00;92379.00;;;3.99
40968;BMP280;57377;45.130;6.038;2023-03-01T09:18:26;92376.31;;;4.35
40968;BMP280;57377;45.130;6.038;2023-03-01T09:20:51;92377.84;;;4.36
40968;BMP280;57377;45.130;6.038;2023-03-01T09:23:20;92377.16;;;4.55
40968;BMP280;57377;45.130;6.038;2023-03-01T09:25:45;92373.44;;;4.21
40968;BMP280;57377;45.130;6.038;2023-03-01T09:28:11;92366.53;;;4.37
40968;BMP280;57377;45.130;6.038;2023-03-01T09:30:36;92365.84;;;4.71
40968;BMP280;57377;45.130;6.038;2023-03-01T09:33:01;92361.72;;;4.79
40968;BMP280;57377;45.130;6.038;2023-03-01T09:35:27;92360.72;;;4.80
40968;BMP280;57377;45.130;6.038;2023-03-01T09:37:53;92357.97;;;4.21
40968;BMP280;57377;45.130;6.038;2023-03-01T09:40:21;92357.78;;;4.33
40968;BMP280;57377;45.130;6.038;2023-03-01T09:43:08;92360.19;;;4.64
40968;BMP280;57377;45.130;6.038;2023-03-01T09:45:41;92349.63;;;4.75
40968;BMP280;57377;45.130;6.038;2023-03-01T09:48:18;92342.94;;;5.04
40968;BMP280;57377;45.130;6.038;2023-03-01T09:50:47;92344.50;;;5.29
40968;BMP280;57377;45.130;6.038;2023-03-01T09:53:18;92346.56;;;5.32
40968;BMP280;57377;45.130;6.038;2023-03-01T09:56:02;92331.59;;;5.29
40968;BMP280;57377;45.130;6.038;2023-03-01T10:06:22;92327.94;;;5.79
40968;BMP280;57377;45.130;6.038;2023-03-01T10:08:53;92331.78;;;5.87
40968;BMP280;57377;45.130;6.038;2023-03-01T10:11:22;92320.41;;;6.03
40968;BMP280;57377;45.130;6.038;2023-03-01T10:13:55;92316.84;;;6.46
40968;BMP280;57377;45.130;6.038;2023-03-01T10:16:51;92315.22;;;6.60
40968;BMP280;57377;45.130;6.038;2023-03-01T10:19:27;92298.44;;;6.96
40968;BMP280;57377;45.130;6.038;2023-03-01T10:21:53;92300.59;;;7.17
40968;BMP280;57377;45.130;6.038;2023-03-01T10:24:19;92306.75;;;7.26
40968;BMP280;57377;45.130;6.038;2023-03-01T10:26:57;92302.06;;;7.28
40968;BMP280;57377;45.130;6.038;2023-03-01T10:29:34;92306.59;;;7.40
40968;BMP280;57377;45.130;6.038;2023-03-01T10:32:03;92306.72;;;7.54
40968;BMP280;57377;45.130;6.038;2023-03-01T10:34:34;92296.81;;;7.37
40968;BMP280;57377;45.130;6.038;2023-03-01T10:37:20;92292.66;;;7.36
40968;BMP280;57377;45.130;6.038;2023-03-01T10:42:32;92275.38;;;7.60
40968;BMP280;57377;45.130;6.038;2023-03-01T10:45:15;92279.31;;;7.53
40968;BMP280;57377;45.130;6.038;2023-03-01T10:47:41;92273.72;;;7.13
40968;BMP280;57377;45.130;6.038;2023-03-01T10:50:21;92281.34;;;6.62
40968;BMP280;57377;45.130;6.038;2023-03-01T10:53:01;92265.44;;;7.16
40968;BMP280;57377;45.130;6.038;2023-03-01T10:55:33;92256.47;;;7.08
40968;BMP280;57377;45.130;6.038;2023-03-01T10:58:16;92261.19;;;7.25
40968;BMP280;57377;45.130;6.038;2023-03-01T11:01:06;92253.09;;;6.37
40968;BMP280;57377;45.130;6.038;2023-03-01T11:06:28;92250.25;;;7.37
40968;BMP280;57377;45.130;6.038;2023-03-01T11:08:54;92247.03;;;7.45
40968;BMP280;57377;45.130;6.038;2023-03-01T11:14:06;92239.97;;;7.79
40968;BMP280;57377;45.130;6.038;2023-03-01T11:16:37;92237.13;;;7.75
40968;BMP280;57377;45.130;6.038;2023-03-01T11:19:12;92237.25;;;7.89
40968;BMP280;57377;45.130;6.038;2023-03-01T11:24:10;92227.47;;;7.34
40968;BMP280;57377;45.130;6.038;2023-03-01T11:26:39;92213.00;;;7.80
40968;BMP280;57377;45.130;6.038;2023-03-01T11:29:11;92223.56;;;7.14
40968;BMP280;57377;45.130;6.038;2023-03-01T11:31:38;92211.25;;;7.75
40968;BMP280;57377;45.130;6.038;2023-03-01T11:34:12;92205.50;;;8.01
40968;BMP280;57377;45.130;6.038;2023-03-01T11:36:46;92193.53;;;8.05
40968;BMP280;57377;45.130;6.038;2023-03-01T11:41:39;92183.50;;;7.99
40968;BMP280;57377;45.130;6.038;2023-03-01T11:44:15;92178.66;;;7.74
40968;BMP280;57377;45.130;6.038;2023-03-01T11:52:36;92166.56;;;7.88
40968;BMP280;57377;45.130;6.038;2023-03-01T11:58:04;92158.75;;;7.93
40968;BMP280;57377;45.130;6.038;2023-03-01T12:03:39;92146.69;;;7.84
40968;BMP280;57377;45.130;6.038;2023-03-01T12:11:41;92137.28;;;8.29
40968;BMP280;57377;45.130;6.038;2023-03-01T12:14:18;92125.34;;;8.28
40968;BMP280;57377;45.130;6.038;2023-03-01T12:37:47;92106.22;;;9.45
40968;BMP280;57377;45.130;6.038;2023-03-01T12:40:37;92107.34;;;9.26
40968;BMP280;57377;45.130;6.038;2023-03-01T12:43:51;92106.50;;;9.44
40968;BMP280;57377;45.130;6.038;2023-03-01T12:49:24;92095.72;;;9.24
40968;BMP280;57377;45.130;6.038;2023-03-01T12:51:58;92098.22;;;9.02
40968;BMP280;57377;45.130;6.038;2023-03-01T12:54:28;92091.88;;;9.21
40968;BMP280;57377;45.130;6.038;2023-03-01T12:56:57;92086.69;;;9.08
40968;BMP280;57377;45.130;6.038;2023-03-01T13:04:53;92078.97;;;8.76
40968;BMP280;57377;45.130;6.038;2023-03-01T13:12:46;92071.25;;;8.71
40968;BMP280;57377;45.130;6.038;2023-03-01T13:15:34;92075.41;;;8.72
40968;BMP280;57377;45.130;6.038;2023-03-01T13:18:02;92061.31;;;7.79
40968;BMP280;57377;45.130;6.038;2023-03-01T13:36:25;92035.47;;;8.42
40968;BMP280;57377;45.130;6.038;2023-03-01T13:39:03;92033.69;;;8.69
40968;BMP280;57377;45.130;6.038;2023-03-01T13:46:44;92023.53;;;8.86
40968;BMP280;57377;45.130;6.038;2023-03-01T13:49:14;92023.25;;;8.87
40968;BMP280;57377;45.130;6.038;2023-03-01T13:51:41;92012.69;;;8.70
40968;BMP280;57377;45.130;6.038;2023-03-01T13:54:11;92021.31;;;8.66
40968;BMP280;57377;45.130;6.038;2023-03-01T13:56:37;92017.28;;;8.73
40968;BMP280;57377;45.130;6.038;2023-03-01T14:01:37;92027.66;;;7.79
40968;BMP280;57377;45.130;6.038;2023-03-01T14:04:19;92036.59;;;8.04
40968;BMP280;57377;45.130;6.038;2023-03-01T14:06:46;92037.38;;;7.87
40968;BMP280;57377;45.130;6.038;2023-03-01T14:09:21;92039.94;;;8.23
40968;BMP280;57377;45.130;6.038;2023-03-01T14:14:52;92030.22;;;8.15
40968;BMP280;57377;45.130;6.038;2023-03-01T14:17:44;92034.66;;;8.28
40968;BMP280;57377;45.130;6.038;2023-03-01T14:20:18;92036.91;;;8.34
40968;BMP280;57377;45.130;6.038;2023-03-01T14:22:44;92035.88;;;8.35
40968;BMP280;57377;45.130;6.038;2023-03-01T14:25:21;92040.94;;;8.09
40968;BMP280;57377;45.130;6.038;2023-03-01T14:30:46;92044.06;;;8.24
40968;BMP280;57377;45.130;6.038;2023-03-01T14:38:35;92049.84;;;8.21
40968;BMP280;57377;45.130;6.038;2023-03-01T14:41:05;92050.03;;;8.25
40968;BMP280;57377;45.130;6.038;2023-03-01T14:43:31;92053.69;;;8.24
40968;BMP280;57377;45.130;6.038;2023-03-01T14:45:57;92057.59;;;8.21
40968;BMP280;57377;45.130;6.038;2023-03-01T14:48:23;92060.50;;;8.33
40968;BMP280;57377;45.130;6.038;2023-03-01T14:50:49;92051.88;;;8.37
40968;BMP280;57377;45.130;6.038;2023-03-01T14:53:24;92055.94;;;8.43
40968;BMP280;57377;45.130;6.038;2023-03-01T14:55:54;92053.44;;;8.38
40968;BMP280;57377;45.130;6.038;2023-03-01T14:58:22;92065.41;;;8.34
40968;BMP280;57377;45.130;6.038;2023-03-01T15:00:57;92066.75;;;8.32
40968;BMP280;57377;45.130;6.038;2023-03-01T15:03:38;92068.56;;;8.32
40968;BMP280;57377;45.130;6.038;2023-03-01T15:06:07;92064.81;;;8.24
40968;BMP280;57377;45.130;6.038;2023-03-01T15:08:35;92058.22;;;8.32
40968;BMP280;57377;45.130;6.038;2023-03-01T15:11:48;92061.28;;;8.33
40968;BMP280;57377;45.130;6.038;2023-03-01T15:13:51;92065.66;;;8.20
40968;BMP280;57377;45.130;6.038;2023-03-01T15:18:57;92065.50;;;8.11
40968;BMP280;57377;45.130;6.038;2023-03-01T15:21:25;92065.84;;;8.23
40968;BMP280;57377;45.130;6.038;2023-03-01T15:23:59;92064.53;;;8.07
40968;BMP280;57377;45.130;6.038;2023-03-01T15:26:30;92063.81;;;8.20
40968;BMP280;57377;45.130;6.038;2023-03-01T15:28:58;92060.06;;;8.13
40968;BMP280;57377;45.130;6.038;2023-03-01T15:31:26;92064.94;;;7.96
40968;BMP280;57377;45.130;6.038;2023-03-01T15:33:52;92063.41;;;7.95
40968;BMP280;57377;45.130;6.038;2023-03-01T15:36:36;92059.22;;;7.81
40968;BMP280;57377;45.130;6.038;2023-03-01T15:39:03;92053.41;;;7.89
40968;BMP280;57377;45.130;6.038;2023-03-01T15:41:37;92059.75;;;7.96
40968;BMP280;57377;45.130;6.038;2023-03-01T15:44:29;92071.59;;;7.84
40968;BMP280;57377;45.130;6.038;2023-03-01T15:46:55;92066.69;;;7.64
40968;BMP280;57377;45.130;6.038;2023-03-01T15:49:39;92071.66;;;7.61
40968;BMP280;57377;45.130;6.038;2023-03-01T15:52:09;92078.47;;;6.64
40968;BMP280;57377;45.130;6.038;2023-03-01T15:54:39;92079.00;;;6.61
40968;BMP280;57377;45.130;6.038;2023-03-01T15:57:08;92080.91;;;7.02
40968;BMP280;57377;45.130;6.038;2023-03-01T15:59:35;92085.22;;;7.11
40968;BMP280;57377;45.130;6.038;2023-03-01T16:02:00;92084.81;;;7.23
40968;BMP280;57377;45.130;6.038;2023-03-01T16:04:26;92090.59;;;7.15
40968;BMP280;57377;45.130;6.038;2023-03-01T16:06:52;92087.50;;;6.90
40968;BMP280;57377;45.130;6.038;2023-03-01T16:09:22;92088.63;;;7.07
40968;BMP280;57377;45.130;6.038;2023-03-01T16:11:48;92084.38;;;6.93
40968;BMP280;57377;45.130;6.038;2023-03-01T16:14:13;92086.19;;;6.92
40968;BMP280;57377;45.130;6.038;2023-03-01T16:16:39;92095.13;;;7.04
40968;BMP280;57377;45.130;6.038;2023-03-01T16:19:05;92095.59;;;6.83
40968;BMP280;57377;45.130;6.038;2023-03-01T16:21:31;92100.94;;;6.92
40968;BMP280;57377;45.130;6.038;2023-03-01T16:23:56;92102.75;;;6.91
40968;BMP280;57377;45.130;6.038;2023-03-01T16:26:22;92110.41;;;7.01
40968;BMP280;57377;45.130;6.038;2023-03-01T16:28:48;92103.78;;;6.90
40968;BMP280;57377;45.130;6.038;2023-03-01T16:31:17;92102.38;;;6.79
40968;BMP280;57377;45.130;6.038;2023-03-01T16:33:43;92101.72;;;6.92
40968;BMP280;57377;45.130;6.038;2023-03-01T16:36:14;92102.56;;;6.83
40968;BMP280;57377;45.130;6.038;2023-03-01T16:38:40;92099.84;;;6.98
40968;BMP280;57377;45.130;6.038;2023-03-01T16:41:11;92098.84;;;6.94
40968;BMP280;57377;45.130;6.038;2023-03-01T16:43:36;92112.38;;;6.86
40968;BMP280;57377;45.130;6.038;2023-03-01T16:46:10;92112.25;;;6.96
40968;BMP280;57377;45.130;6.038;2023-03-01T16:48:35;92117.88;;;6.79
40968;BMP280;57377;45.130;6.038;2023-03-01T16:51:01;92120.25;;;6.71
40968;BMP280;57377;45.130;6.038;2023-03-01T16:53:27;92115.06;;;6.43
40968;BMP280;57377;45.130;6.038;2023-03-01T16:55:55;92124.47;;;6.34